Time;durP1;ratioP1;P1;durP2;ratioP2;P2;SDS_P1;SDS_P2;PMS_P1;PMS_P2;Temp;Humidity;BMP_temperature;BMP_pressure;BME280_temperature;BME280_humidity;BME280_pressure;Samples;Min_cycle;Max_cycle;Signal;HPM_P1;HPM_P2
2021/01/10 06:03:00;;;;;;;6.97;3.85;;;;;;;;;;6278733;22;708266;-79
2021/01/10 06:05:26;;;;;;;7.20;4.47;;;;;;;;;;6290566;22;20320;-79
2021/01/10 06:07:52;;;;;;;7.57;4.00;;;;;;;;;;6290062;22;20015;-79
2021/01/10 06:10:27;;;;;;;10.13;4.50;;;;;;;;;;6289976;22;20026;-79
2021/01/10 06:13:03;;;;;;;6.20;3.42;;;;;;;;;;6280551;22;19996;-80
2021/01/10 06:15:31;;;;;;;7.85;4.47;;;;;;;;;;6291077;22;20021;-79
2021/01/10 06:18:00;;;;;;;8.00;4.25;;;;;;;;;;6288854;22;19999;-79
2021/01/10 06:20:27;;;;;;;8.38;4.43;;;;;;;;;;6289016;22;20471;-79
2021/01/10 06:22:53;;;;;;;8.15;3.88;;;;;;;;;;6288414;22;20499;-79
2021/01/10 06:25:21;;;;;;;6.57;3.72;;;;;;;;;;6289108;22;20004;-80
2021/01/10 06:27:48;;;;;;;5.88;3.30;;;;;;;;;;6289317;22;20011;-79
2021/01/10 06:30:17;;;;;;;8.25;4.03;;;;;;;;;;6286900;22;20446;-79
2021/01/10 06:32:45;;;;;;;7.88;4.68;;;;;;;;;;6287247;22;20059;-79
2021/01/10 06:35:11;;;;;;;6.18;4.20;;;;;;;;;;6288804;22;20000;-80
2021/01/10 06:37:40;;;;;;;6.82;3.95;;;;;;;;;;6287494;22;20004;-81
2021/01/10 06:40:06;;;;;;;6.80;4.15;;;;;;;;;;6286206;22;20337;-81
2021/01/10 06:42:37;;;;;;;7.55;4.28;;;;;;;;;;6284294;22;19995;-81
2021/01/10 06:45:14;;;;;;;7.05;3.38;;;;;;;;;;6285390;22;19992;-82
2021/01/10 06:47:40;;;;;;;6.68;3.58;;;;;;;;;;6283719;22;20053;-83
2021/01/10 06:50:06;;;;;;;7.75;4.10;;;;;;;;;;6285012;22;20011;-83
2021/01/10 06:52:33;;;;;;;8.25;4.35;;;;;;;;;;6286107;22;20004;-83
2021/01/10 06:54:59;;;;;;;6.18;3.53;;;;;;;;;;6285971;22;19996;-84
2021/01/10 06:57:31;;;;;;;6.18;3.72;;;;;;;;;;6287623;22;19999;-84
2021/01/10 06:59:58;;;;;;;8.05;4.18;;;;;;;;;;6287503;22;20004;-82
2021/01/10 07:02:24;;;;;;;6.70;3.67;;;;;;;;;;6281360;22;20018;-81
2021/01/10 07:04:54;;;;;;;6.85;3.70;;;;;;;;;;6279534;22;20008;-82
2021/01/10 07:07:49;;;;;;;9.95;3.63;;;;;;;;;;6279852;22;20072;-82
2021/01/10 07:10:24;;;;;;;7.45;3.78;;;;;;;;;;6259622;22;20015;-82
2021/01/10 07:12:50;;;;;;;7.88;4.32;;;;;;;;;;6279982;22;20000;-82
2021/01/10 07:15:19;;;;;;;6.53;3.40;;;;;;;;;;6279142;22;20003;-81
2021/01/10 07:18:04;;;;;;;7.18;3.47;;;;;;;;;;6278521;22;20003;-82
2021/01/10 07:20:33;;;;;;;6.20;3.38;;;;;;;;;;6280159;22;20010;-82
2021/01/10 07:23:18;;;;;;;6.43;3.38;;;;;;;;;;6279158;22;20004;-82
2021/01/10 07:25:44;;;;;;;7.10;3.70;;;;;;;;;;6280688;22;20082;-81
2021/01/10 07:28:28;;;;;;;8.20;3.80;;;;;;;;;;6281691;22;20018;-83
2021/01/10 07:31:11;;;;;;;8.45;4.10;;;;;;;;;;6279307;22;20023;-83
2021/01/10 07:33:37;;;;;;;7.50;3.67;;;;;;;;;;6278890;22;20408;-83
2021/01/10 07:36:03;;;;;;;8.85;4.07;;;;;;;;;;6281937;22;20002;-83
2021/01/10 07:38:30;;;;;;;6.85;4.20;;;;;;;;;;6279668;22;20000;-83
2021/01/10 07:41:16;;;;;;;6.05;3.78;;;;;;;;;;6281325;22;20007;-83
2021/01/10 07:43:49;;;;;;;8.18;4.10;;;;;;;;;;6280063;22;20138;-83
2021/01/10 07:46:35;;;;;;;7.25;3.42;;;;;;;;;;6280706;22;20003;-82
2021/01/10 07:49:07;;;;;;;7.05;3.67;;;;;;;;;;6280009;22;20011;-82
2021/01/10 07:51:33;;;;;;;8.50;3.33;;;;;;;;;;6278352;22;20018;-82
2021/01/10 07:54:00;;;;;;;8.02;4.07;;;;;;;;;;6279436;22;19992;-83
2021/01/10 07:56:26;;;;;;;8.55;4.13;;;;;;;;;;6276616;22;19996;-81
2021/01/10 07:59:12;;;;;;;9.50;4.00;;;;;;;;;;6274768;22;20011;-81
2021/01/10 08:01:50;;;;;;;7.95;4.82;;;;;;;;;;6275759;22;20004;-82
2021/01/10 08:04:35;;;;;;;6.40;3.58;;;;;;;;;;6275990;22;20003;-81
2021/01/10 08:07:04;;;;;;;7.22;3.38;;;;;;;;;;6276181;22;20000;-81
2021/01/10 08:09:32;;;;;;;8.27;4.65;;;;;;;;;;6275835;22;20014;-81
2021/01/10 08:11:58;;;;;;;7.85;3.38;;;;;;;;;;6276191;22;20455;-81
2021/01/10 08:14:24;;;;;;;6.55;3.45;;;;;;;;;;6274490;22;20008;-81
2021/01/10 08:16:50;;;;;;;7.63;3.45;;;;;;;;;;6277216;22;20486;-82
2021/01/10 08:19:16;;;;;;;6.45;3.47;;;;;;;;;;6278635;22;20006;-82
2021/01/10 08:21:42;;;;;;;10.27;4.80;;;;;;;;;;6279548;22;20018;-82
2021/01/10 08:24:08;;;;;;;8.38;4.10;;;;;;;;;;6279472;22;20082;-82
2021/01/10 08:26:41;;;;;;;8.45;4.13;;;;;;;;;;6279591;22;20007;-82
2021/01/10 08:29:07;;;;;;;7.97;4.20;;;;;;;;;;6280051;22;20027;-82
2021/01/10 08:31:34;;;;;;;6.95;4.05;;;;;;;;;;6280214;22;20011;-82
2021/01/10 08:34:07;;;;;;;7.57;3.85;;;;;;;;;;6281497;22;20002;-81
2021/01/10 08:36:34;;;;;;;7.93;4.00;;;;;;;;;;6281303;22;20007;-81
2021/01/10 08:38:59;;;;;;;8.02;4.85;;;;;;;;;;6281581;22;20433;-81
2021/01/10 08:41:27;;;;;;;8.73;4.05;;;;;;;;;;6279498;22;20065;-81
2021/01/10 08:43:54;;;;;;;9.23;5.30;;;;;;;;;;6280910;22;20006;-81
2021/01/10 08:46:20;;;;;;;9.38;4.95;;;;;;;;;;6280636;22;20030;-81
2021/01/10 08:51:04;;;;;;;8.30;5.13;;;;;;;;;;5069790;28;20346;-80
2021/01/10 08:53:43;;;;;;;9.55;5.32;;;;;;;;;;5053666;28;20039;-80
2021/01/10 08:56:15;;;;;;;10.30;5.65;;;;;;;;;;5046184;28;20056;-80
2021/01/10 08:58:43;;;;;;;10.40;5.75;;;;;;;;;;5057932;28;20025;-80
2021/01/10 09:01:11;;;;;;;13.10;7.00;;;;;;;;;;5048684;28;20013;-80
2021/01/10 09:03:37;;;;;;;12.65;7.43;;;;;;;;;;5051088;28;20280;-81
2021/01/10 09:06:03;;;;;;;13.93;8.05;;;;;;;;;;5052315;28;20036;-80
2021/01/10 09:08:44;;;;;;;15.75;8.52;;;;;;;;;;5054841;28;20056;-82
2021/01/10 09:11:13;;;;;;;18.75;10.43;;;;;;;;;;5063203;28;20035;-81
2021/01/10 09:13:42;;;;;;;28.23;12.20;;;;;;;;;;5058211;28;20029;-81
2021/01/10 09:16:11;;;;;;;30.40;15.82;;;;;;;;;;5064454;28;20029;-81
2021/01/10 09:18:38;;;;;;;30.27;15.48;;;;;;;;;;5066052;28;20033;-81
2021/01/10 09:21:13;;;;;;;33.38;16.80;;;;;;;;;;5059350;28;20036;-81
2021/01/10 09:23:39;;;;;;;31.13;16.08;;;;;;;;;;5058969;28;20051;-81
2021/01/10 09:26:05;;;;;;;30.05;17.45;;;;;;;;;;5049090;28;20025;-81
2021/01/10 09:28:33;;;;;;;33.45;18.27;;;;;;;;;;5052362;28;20380;-81
2021/01/10 09:30:59;;;;;;;26.15;17.20;;;;;;;;;;5058565;28;20029;-81
2021/01/10 09:33:28;;;;;;;28.85;17.15;;;;;;;;;;5068104;28;20036;-81
2021/01/10 09:35:57;;;;;;;29.60;17.13;;;;;;;;;;5067265;28;20021;-79
2021/01/10 09:38:24;;;;;;;29.77;16.80;;;;;;;;;;5062359;28;20036;-80
2021/01/10 09:41:04;;;;;;;27.63;16.02;;;;;;;;;;5058952;28;20026;-80
2021/01/10 09:43:34;;;;;;;23.55;13.35;;;;;;;;;;5061052;28;20080;-82
2021/01/10 09:46:00;;;;;;;19.42;11.45;;;;;;;;;;5052766;28;20093;-82
2021/01/10 09:48:26;;;;;;;16.50;10.25;;;;;;;;;;5052753;28;20064;-82
2021/01/10 09:50:52;;;;;;;13.50;8.73;;;;;;;;;;5058805;28;20112;-82
2021/01/10 09:53:25;;;;;;;17.83;8.45;;;;;;;;;;5053080;28;20480;-82
2021/01/10 09:55:51;;;;;;;12.27;7.15;;;;;;;;;;5049770;28;20017;-82
2021/01/10 09:58:17;;;;;;;11.85;7.22;;;;;;;;;;5056902;28;20032;-82
2021/01/10 10:00:59;;;;;;;11.48;6.75;;;;;;;;;;5054750;28;20038;-82
2021/01/10 10:03:25;;;;;;;12.00;6.22;;;;;;;;;;5033575;28;20115;-83
2021/01/10 10:06:00;;;;;;;12.27;6.90;;;;;;;;;;5035588;28;20052;-82
2021/01/10 10:08:26;;;;;;;11.75;6.70;;;;;;;;;;5039558;28;20029;-82
2021/01/10 10:10:52;;;;;;;12.55;7.03;;;;;;;;;;5040244;28;20029;-82
2021/01/10 10:13:25;;;;;;;14.30;6.75;;;;;;;;;;5039071;28;20563;-82
2021/01/10 10:15:58;;;;;;;11.18;6.88;;;;;;;;;;5034549;28;20017;-82
2021/01/10 10:18:28;;;;;;;12.27;6.43;;;;;;;;;;5034646;28;20109;-82
2021/01/10 10:20:55;;;;;;;10.80;6.43;;;;;;;;;;5037566;28;20053;-82
2021/01/10 10:23:21;;;;;;;11.35;6.78;;;;;;;;;;5033259;28;20060;-82
2021/01/10 10:25:48;;;;;;;11.15;6.40;;;;;;;;;;5042039;28;20026;-82
2021/01/10 10:28:15;;;;;;;12.50;7.30;;;;;;;;;;5049731;28;20033;-82
2021/01/10 10:30:42;;;;;;;12.35;6.65;;;;;;;;;;5039663;28;20029;-82
2021/01/10 10:33:16;;;;;;;11.13;5.88;;;;;;;;;;5038282;28;20041;-82
2021/01/10 10:35:42;;;;;;;9.25;5.53;;;;;;;;;;5039579;28;20025;-82
2021/01/10 10:38:09;;;;;;;9.43;5.78;;;;;;;;;;5041495;28;20120;-82
2021/01/10 10:40:35;;;;;;;8.27;5.50;;;;;;;;;;5043337;28;20014;-82
2021/01/10 10:43:02;;;;;;;7.60;4.88;;;;;;;;;;5044800;28;20079;-82
2021/01/10 10:45:28;;;;;;;6.32;4.15;;;;;;;;;;5046909;28;20068;-82
2021/01/10 10:47:54;;;;;;;5.72;3.42;;;;;;;;;;5035555;28;20444;-82
2021/01/10 10:50:20;;;;;;;6.45;3.70;;;;;;;;;;5035633;28;20485;-82
2021/01/10 10:52:46;;;;;;;5.85;3.42;;;;;;;;;;5026662;28;20026;-81
2021/01/10 10:55:12;;;;;;;5.97;3.55;;;;;;;;;;5036667;28;20097;-81
2021/01/10 10:57:42;;;;;;;5.80;3.97;;;;;;;;;;5029224;28;20565;-81
2021/01/10 11:00:08;;;;;;;5.90;3.55;;;;;;;;;;5035682;28;20050;-81
2021/01/10 11:02:34;;;;;;;6.10;3.35;;;;;;;;;;5036747;28;20035;-81
2021/01/10 11:05:00;;;;;;;4.88;3.28;;;;;;;;;;5033402;28;20120;-79
2021/01/10 11:07:26;;;;;;;4.75;3.25;;;;;;;;;;5036117;28;20025;-83
2021/01/10 11:09:52;;;;;;;9.45;3.78;;;;;;;;;;5033656;28;20052;-84
2021/01/10 11:12:18;;;;;;;5.00;3.33;;;;;;;;;;5034419;28;20030;-84
2021/01/10 11:14:44;;;;;;;5.93;3.60;;;;;;;;;;5040304;28;20022;-84
2021/01/10 11:17:11;;;;;;;5.35;3.00;;;;;;;;;;5044834;28;20056;-84
2021/01/10 11:19:37;;;;;;;4.72;3.15;;;;;;;;;;5045678;28;20076;-84
2021/01/10 11:22:04;;;;;;;5.53;3.75;;;;;;;;;;5037340;28;20041;-84
2021/01/10 11:24:31;;;;;;;8.48;4.35;;;;;;;;;;5039274;28;20669;-84
2021/01/10 11:26:56;;;;;;;7.47;4.47;;;;;;;;;;5042415;28;20037;-84
2021/01/10 11:29:22;;;;;;;5.88;3.65;;;;;;;;;;5038973;28;20120;-84
2021/01/10 11:31:49;;;;;;;9.02;5.95;;;;;;;;;;5044598;28;20021;-85
2021/01/10 11:34:15;;;;;;;4.85;3.28;;;;;;;;;;5033553;28;20057;-85
2021/01/10 11:36:45;;;;;;;7.82;3.10;;;;;;;;;;5038044;28;20031;-84
2021/01/10 11:39:12;;;;;;;5.25;3.40;;;;;;;;;;5038435;28;20076;-85
2021/01/10 11:41:38;;;;;;;4.63;2.65;;;;;;;;;;5037754;28;20025;-85
2021/01/10 11:44:05;;;;;;;5.05;2.95;;;;;;;;;;5044590;28;20029;-84
2021/01/10 11:46:31;;;;;;;5.68;3.17;;;;;;;;;;5048412;28;20044;-84
2021/01/10 11:48:56;;;;;;;4.72;2.90;;;;;;;;;;5047798;28;20705;-85
2021/01/10 11:51:24;;;;;;;6.45;3.60;;;;;;;;;;5044747;28;20030;-84
2021/01/10 11:53:50;;;;;;;6.90;4.38;;;;;;;;;;5050231;28;20017;-84
2021/01/10 11:56:16;;;;;;;4.45;2.75;;;;;;;;;;5042133;28;20022;-84
2021/01/10 11:58:42;;;;;;;5.45;2.85;;;;;;;;;;5050650;28;20096;-85
2021/01/10 12:01:08;;;;;;;6.15;3.80;;;;;;;;;;5037459;28;20052;-84
2021/01/10 12:03:34;;;;;;;13.32;5.82;;;;;;;;;;5034060;28;20530;-83
2021/01/10 12:08:19;;;;;;;24.88;10.35;;;;;;;;;;5093521;27;20356;-78
2021/01/10 12:10:45;;;;;;;12.70;6.72;;;;;;;;;;5092713;28;20055;-81
2021/01/10 12:13:12;;;;;;;6.13;3.65;;;;;;;;;;5088090;28;20024;-82
2021/01/10 12:15:38;;;;;;;5.88;3.00;;;;;;;;;;5086567;28;20020;-81
2021/01/10 12:18:04;;;;;;;10.43;5.47;;;;;;;;;;5089967;28;20028;-81
2021/01/10 12:20:31;;;;;;;9.07;4.40;;;;;;;;;;5082273;28;20060;-81
2021/01/10 12:22:57;;;;;;;7.22;4.00;;;;;;;;;;5093372;28;20032;-82
2021/01/10 12:27:42;;;;;;;4.82;2.58;;;;;;;;;;5105954;27;20409;-82
2021/01/10 12:30:08;;;;;;;4.82;2.83;;;;;;;;;;5114031;28;20036;-82
2021/01/10 12:32:38;;;;;;;7.95;4.55;;;;;;;;;;5100644;28;20388;-82
2021/01/10 12:35:08;;;;;;;4.15;2.53;;;;;;;;;;5101459;28;20496;-81
2021/01/10 12:37:34;;;;;;;4.68;2.90;;;;;;;;;;5105808;28;20055;-82
2021/01/10 12:40:00;;;;;;;5.38;3.17;;;;;;;;;;5104052;28;20051;-81
2021/01/10 12:42:26;;;;;;;5.35;3.22;;;;;;;;;;5101300;28;20019;-82
2021/01/10 12:44:53;;;;;;;4.53;2.50;;;;;;;;;;5101069;28;20021;-82
2021/01/10 12:47:19;;;;;;;5.57;3.97;;;;;;;;;;5101362;28;20024;-82
2021/01/10 12:52:06;;;;;;;4.30;2.70;;;;;;;;;;5104553;27;20372;-82
2021/01/10 12:54:33;;;;;;;6.90;2.70;;;;;;;;;;5090434;28;20082;-81
2021/01/10 12:57:01;;;;;;;4.28;2.80;;;;;;;;;;5087843;28;20026;-81
2021/01/10 12:59:27;;;;;;;5.90;3.00;;;;;;;;;;5088264;28;20024;-81
2021/01/10 13:01:53;;;;;;;5.03;2.95;;;;;;;;;;5092052;28;20070;-82
2021/01/10 13:04:19;;;;;;;8.38;3.15;;;;;;;;;;5089923;28;20052;-81
2021/01/10 13:06:45;;;;;;;5.65;3.33;;;;;;;;;;5090529;28;20075;-82
2021/01/10 13:09:12;;;;;;;5.55;3.40;;;;;;;;;;5098050;28;20021;-80
2021/01/10 13:11:39;;;;;;;4.75;2.58;;;;;;;;;;5102212;28;20523;-81
2021/01/10 13:14:05;;;;;;;7.32;3.67;;;;;;;;;;5101216;28;20023;-82
2021/01/10 13:16:31;;;;;;;6.15;3.05;;;;;;;;;;5105696;28;20121;-83
2021/01/10 13:18:57;;;;;;;5.82;3.15;;;;;;;;;;5099135;28;20020;-81
2021/01/10 13:21:23;;;;;;;5.40;3.00;;;;;;;;;;5100663;28;20488;-81
2021/01/10 13:23:49;;;;;;;7.63;3.33;;;;;;;;;;5105874;28;20029;-80
2021/01/10 13:26:15;;;;;;;7.18;3.20;;;;;;;;;;5097342;28;20032;-81
2021/01/10 13:28:42;;;;;;;5.88;3.33;;;;;;;;;;5101671;28;20557;-82
2021/01/10 13:31:08;;;;;;;5.93;3.33;;;;;;;;;;5100257;28;20663;-81
2021/01/10 13:33:33;;;;;;;8.70;3.88;;;;;;;;;;5101573;28;20020;-82
2021/01/10 13:35:59;;;;;;;6.20;3.63;;;;;;;;;;5103086;28;20025;-82
2021/01/10 13:38:25;;;;;;;6.93;3.58;;;;;;;;;;5101444;28;20025;-81
2021/01/10 13:40:52;;;;;;;5.05;3.10;;;;;;;;;;5105725;28;20020;-81
2021/01/10 13:43:19;;;;;;;5.65;3.40;;;;;;;;;;5095333;28;20027;-79
2021/01/10 13:45:45;;;;;;;7.05;3.58;;;;;;;;;;5102831;28;20080;-81
2021/01/10 13:48:11;;;;;;;7.78;3.55;;;;;;;;;;5101229;28;20024;-80
2021/01/10 13:50:37;;;;;;;7.15;4.10;;;;;;;;;;5103207;28;20028;-81
2021/01/10 13:53:03;;;;;;;6.25;3.60;;;;;;;;;;5106375;28;20034;-82
2021/01/10 13:55:29;;;;;;;6.43;4.03;;;;;;;;;;5101932;28;20089;-82
2021/01/10 13:57:55;;;;;;;6.72;3.53;;;;;;;;;;5104338;28;20060;-81
2021/01/10 14:00:21;;;;;;;6.10;3.90;;;;;;;;;;5098001;28;20021;-81
2021/01/10 14:02:47;;;;;;;8.57;4.28;;;;;;;;;;5091008;28;20020;-81
2021/01/10 14:05:14;;;;;;;8.32;4.68;;;;;;;;;;5085541;28;20106;-81
2021/01/10 14:07:40;;;;;;;7.75;4.32;;;;;;;;;;5077489;28;20024;-82
2021/01/10 14:12:24;;;;;;;6.95;3.97;;;;;;;;;;5074428;28;20359;-81
2021/01/10 14:14:51;;;;;;;7.63;4.10;;;;;;;;;;5065468;28;20025;-81
2021/01/10 14:17:18;;;;;;;6.38;3.80;;;;;;;;;;5051824;28;20080;-80
2021/01/10 14:19:43;;;;;;;6.38;3.55;;;;;;;;;;5059343;28;20025;-81
2021/01/10 14:22:11;;;;;;;6.28;4.22;;;;;;;;;;5056574;28;20112;-77
2021/01/10 14:24:37;;;;;;;6.05;3.58;;;;;;;;;;5055290;28;20091;-80
2021/01/10 14:27:03;;;;;;;5.97;4.38;;;;;;;;;;5057749;28;20029;-80
2021/01/10 14:29:29;;;;;;;8.38;4.25;;;;;;;;;;5051268;28;20026;-80
2021/01/10 14:31:55;;;;;;;6.05;3.92;;;;;;;;;;5058292;28;20365;-81
2021/01/10 14:34:22;;;;;;;7.03;3.78;;;;;;;;;;5052948;28;20028;-80
2021/01/10 14:36:49;;;;;;;6.47;4.03;;;;;;;;;;5058734;28;20116;-81
2021/01/10 14:39:15;;;;;;;8.40;5.13;;;;;;;;;;5055916;28;20043;-81
2021/01/10 14:41:41;;;;;;;9.65;5.75;;;;;;;;;;5058143;28;20021;-81
2021/01/10 14:44:07;;;;;;;10.48;5.97;;;;;;;;;;5056706;28;20076;-81
2021/01/10 14:46:34;;;;;;;18.05;9.77;;;;;;;;;;5051004;28;20033;-80
2021/01/10 14:49:00;;;;;;;13.63;7.10;;;;;;;;;;5057535;28;20027;-80
2021/01/10 14:51:26;;;;;;;23.58;11.75;;;;;;;;;;5053278;28;20076;-80
2021/01/10 14:53:53;;;;;;;15.48;8.40;;;;;;;;;;5058477;28;20025;-80
2021/01/10 14:56:19;;;;;;;12.18;7.32;;;;;;;;;;5048762;28;20031;-81
2021/01/10 14:58:45;;;;;;;9.95;5.32;;;;;;;;;;5045260;28;20033;-81
2021/01/10 15:01:19;;;;;;;8.55;5.10;;;;;;;;;;5033036;28;20029;-81
2021/01/10 15:03:46;;;;;;;30.50;13.88;;;;;;;;;;5040667;28;20063;-79
2021/01/10 15:06:13;;;;;;;27.38;11.63;;;;;;;;;;5060354;28;20089;-79
2021/01/10 15:08:43;;;;;;;13.85;7.32;;;;;;;;;;5062427;28;20033;-79
2021/01/10 15:11:09;;;;;;;13.00;7.50;;;;;;;;;;5056059;28;20026;-82
2021/01/10 15:13:35;;;;;;;10.52;6.15;;;;;;;;;;5058512;28;20029;-82
2021/01/10 15:16:01;;;;;;;9.45;5.65;;;;;;;;;;5045877;28;20025;-81
2021/01/10 15:18:27;;;;;;;16.98;9.20;;;;;;;;;;5048796;28;20033;-81
2021/01/10 15:20:53;;;;;;;11.73;6.15;;;;;;;;;;5041212;28;20499;-82
2021/01/10 15:23:19;;;;;;;11.82;7.45;;;;;;;;;;5031993;28;20025;-80
2021/01/10 15:25:45;;;;;;;9.13;5.05;;;;;;;;;;5034805;28;20112;-81
2021/01/10 15:28:11;;;;;;;7.00;4.20;;;;;;;;;;5046925;28;20022;-81
2021/01/10 15:30:37;;;;;;;7.30;4.07;;;;;;;;;;5048755;28;20021;-81
2021/01/10 15:33:04;;;;;;;11.02;5.25;;;;;;;;;;5040984;28;20026;-82
2021/01/10 15:35:30;;;;;;;9.82;6.15;;;;;;;;;;5032982;28;20405;-82
2021/01/10 15:37:58;;;;;;;7.18;4.72;;;;;;;;;;5025100;28;20031;-82
2021/01/10 15:40:24;;;;;;;7.47;4.35;;;;;;;;;;5026178;28;20136;-82
2021/01/10 15:42:50;;;;;;;6.95;4.28;;;;;;;;;;5028643;28;20053;-82
2021/01/10 15:45:16;;;;;;;9.60;5.20;;;;;;;;;;5025833;28;20060;-82
2021/01/10 15:50:01;;;;;;;8.35;4.28;;;;;;;;;;5111339;27;20433;-82
2021/01/10 15:52:27;;;;;;;8.13;4.05;;;;;;;;;;5113274;28;20034;-81
2021/01/10 15:54:53;;;;;;;9.98;5.53;;;;;;;;;;5088999;28;20036;-82
2021/01/10 15:57:19;;;;;;;8.68;5.10;;;;;;;;;;5097517;28;20021;-82
2021/01/10 15:59:45;;;;;;;7.50;4.45;;;;;;;;;;5097089;28;20016;-82
2021/01/10 16:02:11;;;;;;;9.23;4.22;;;;;;;;;;5092548;28;20050;-82
2021/01/10 16:04:38;;;;;;;8.05;4.15;;;;;;;;;;5088633;28;20024;-84
2021/01/10 16:07:04;;;;;;;7.10;4.18;;;;;;;;;;5093691;28;20028;-83
2021/01/10 16:09:29;;;;;;;7.20;4.43;;;;;;;;;;5093471;28;20036;-83
2021/01/10 16:11:56;;;;;;;8.93;4.68;;;;;;;;;;5092360;28;20020;-84
2021/01/10 16:14:22;;;;;;;6.03;3.92;;;;;;;;;;5095623;28;20027;-83
2021/01/10 16:16:48;;;;;;;7.60;4.35;;;;;;;;;;5093946;28;20465;-83
2021/01/10 16:19:14;;;;;;;7.13;3.47;;;;;;;;;;5097079;28;20032;-83
2021/01/10 16:21:40;;;;;;;6.18;3.60;;;;;;;;;;5091121;28;20028;-83
2021/01/10 16:24:06;;;;;;;6.25;3.38;;;;;;;;;;5091433;28;20059;-83
2021/01/10 16:26:39;;;;;;;7.38;4.07;;;;;;;;;;5086491;28;20111;-83
2021/01/10 16:29:05;;;;;;;6.85;3.60;;;;;;;;;;5091872;28;20542;-84
2021/01/10 16:31:38;;;;;;;9.20;4.95;;;;;;;;;;5089116;28;20031;-84
2021/01/10 16:34:05;;;;;;;5.72;3.47;;;;;;;;;;5092578;28;20384;-84
2021/01/10 16:36:39;;;;;;;6.18;3.60;;;;;;;;;;5096999;28;20023;-82
2021/01/10 16:39:05;;;;;;;5.72;3.65;;;;;;;;;;5091610;28;20334;-83
2021/01/10 16:41:36;;;;;;;7.15;3.50;;;;;;;;;;5095994;28;20032;-83
2021/01/10 16:44:01;;;;;;;6.47;3.60;;;;;;;;;;5095041;28;20445;-82
2021/01/10 16:46:28;;;;;;;6.63;3.83;;;;;;;;;;5085471;28;20060;-82
2021/01/10 16:48:53;;;;;;;5.88;3.20;;;;;;;;;;5091941;28;20400;-83
2021/01/10 16:51:20;;;;;;;5.60;3.35;;;;;;;;;;5090460;28;20032;-84
2021/01/10 16:53:45;;;;;;;7.25;5.15;;;;;;;;;;5085915;28;20555;-83
2021/01/10 16:56:15;;;;;;;7.60;4.57;;;;;;;;;;5087900;28;20031;-83
2021/01/10 16:58:41;;;;;;;6.70;3.60;;;;;;;;;;5087022;28;20028;-83
2021/01/10 17:01:07;;;;;;;6.30;3.88;;;;;;;;;;5078449;28;20838;-83
2021/01/10 17:03:33;;;;;;;7.32;4.45;;;;;;;;;;5078709;28;20081;-83
2021/01/10 17:05:59;;;;;;;6.32;3.88;;;;;;;;;;5084758;28;20037;-83
2021/01/10 17:08:25;;;;;;;8.07;4.50;;;;;;;;;;5083760;28;20043;-83
2021/01/10 17:10:51;;;;;;;7.60;3.92;;;;;;;;;;5087994;28;20033;-83
2021/01/10 17:13:17;;;;;;;10.60;5.07;;;;;;;;;;5084617;28;20059;-83
2021/01/10 17:15:45;;;;;;;9.15;5.82;;;;;;;;;;5094819;28;20024;-84
2021/01/10 17:18:11;;;;;;;7.22;4.35;;;;;;;;;;5084250;28;20025;-84
2021/01/10 17:20:37;;;;;;;7.68;4.82;;;;;;;;;;5090854;28;20025;-84
2021/01/10 17:23:03;;;;;;;6.45;3.70;;;;;;;;;;5085505;28;20039;-83
2021/01/10 17:25:29;;;;;;;13.77;8.88;;;;;;;;;;5083266;28;20024;-82
2021/01/10 17:27:55;;;;;;;10.45;5.90;;;;;;;;;;5079660;28;20040;-81
2021/01/10 17:30:21;;;;;;;7.15;4.18;;;;;;;;;;5082270;28;20066;-82
2021/01/10 17:32:47;;;;;;;5.95;3.53;;;;;;;;;;5085485;28;20329;-81
2021/01/10 17:35:14;;;;;;;6.57;3.65;;;;;;;;;;5088636;28;20088;-82
2021/01/10 17:37:41;;;;;;;5.55;3.55;;;;;;;;;;5083131;28;20384;-81
2021/01/10 17:42:25;;;;;;;10.80;5.30;;;;;;;;;;5105225;27;20445;-80
2021/01/10 17:44:51;;;;;;;9.32;5.07;;;;;;;;;;5098067;28;20023;-80
2021/01/10 17:47:17;;;;;;;10.20;5.72;;;;;;;;;;5096834;28;20067;-80
2021/01/10 17:49:43;;;;;;;9.20;4.75;;;;;;;;;;5101329;28;20451;-80
2021/01/10 17:52:10;;;;;;;7.03;4.00;;;;;;;;;;5098629;28;20019;-80
2021/01/10 17:54:36;;;;;;;7.00;4.20;;;;;;;;;;5099714;28;20020;-80
2021/01/10 17:57:02;;;;;;;7.88;4.80;;;;;;;;;;5098419;28;20024;-79
2021/01/10 17:59:28;;;;;;;12.95;6.53;;;;;;;;;;5098462;28;20110;-79
2021/01/10 18:01:54;;;;;;;8.18;4.70;;;;;;;;;;5096346;28;20769;-79
2021/01/10 18:04:21;;;;;;;6.38;3.58;;;;;;;;;;5089316;28;20032;-80
2021/01/10 18:06:47;;;;;;;8.70;3.90;;;;;;;;;;5093600;28;20081;-79
2021/01/10 18:09:13;;;;;;;9.68;5.47;;;;;;;;;;5090518;28;20435;-81
2021/01/10 18:11:39;;;;;;;11.02;6.80;;;;;;;;;;5096083;28;20065;-81
2021/01/10 18:14:05;;;;;;;7.22;4.15;;;;;;;;;;5103424;28;20039;-80
2021/01/10 18:16:31;;;;;;;6.85;4.07;;;;;;;;;;5098247;28;20024;-81
2021/01/10 18:18:57;;;;;;;6.45;3.35;;;;;;;;;;5098708;28;20058;-81
2021/01/10 18:21:23;;;;;;;6.78;3.75;;;;;;;;;;5080677;28;20032;-81
2021/01/10 18:23:49;;;;;;;6.63;3.80;;;;;;;;;;5094423;28;20565;-81
2021/01/10 18:26:15;;;;;;;6.45;3.90;;;;;;;;;;5095885;28;20034;-80
2021/01/10 18:28:41;;;;;;;5.97;3.58;;;;;;;;;;5096065;28;20620;-81
2021/01/10 18:31:07;;;;;;;6.65;3.50;;;;;;;;;;5099875;28;20428;-81
2021/01/10 18:33:33;;;;;;;6.20;3.92;;;;;;;;;;5093613;28;20032;-81
2021/01/10 18:36:00;;;;;;;6.93;3.50;;;;;;;;;;5099378;28;20024;-81
2021/01/10 18:38:26;;;;;;;8.05;4.55;;;;;;;;;;5100533;28;20028;-81
2021/01/10 18:43:09;;;;;;;9.52;5.00;;;;;;;;;;5065899;28;20392;-80
2021/01/10 18:45:35;;;;;;;8.95;4.72;;;;;;;;;;5057744;28;20051;-80
2021/01/10 18:48:01;;;;;;;9.02;4.75;;;;;;;;;;5060685;28;20089;-80
2021/01/10 18:50:27;;;;;;;7.18;3.85;;;;;;;;;;5062036;28;20569;-80
2021/01/10 18:55:11;;;;;;;8.63;4.53;;;;;;;;;;5070763;28;20397;-81
2021/01/10 18:57:37;;;;;;;6.72;3.97;;;;;;;;;;5062831;28;20118;-81
2021/01/10 19:00:05;;;;;;;7.72;4.18;;;;;;;;;;5065202;28;20120;-81
2021/01/10 19:02:31;;;;;;;8.48;5.22;;;;;;;;;;5066096;28;20025;-81
2021/01/10 19:04:57;;;;;;;6.68;3.33;;;;;;;;;;5066671;28;20258;-81
2021/01/10 19:07:24;;;;;;;7.22;4.15;;;;;;;;;;5058461;28;20032;-80
2021/01/10 19:09:50;;;;;;;7.43;3.95;;;;;;;;;;5056441;28;20036;-81
2021/01/10 19:12:16;;;;;;;6.65;3.47;;;;;;;;;;5056398;28;20033;-80
2021/01/10 19:14:42;;;;;;;8.55;4.10;;;;;;;;;;5060121;28;20025;-80
2021/01/10 19:17:10;;;;;;;6.75;3.72;;;;;;;;;;5054706;28;20703;-80
2021/01/10 19:19:36;;;;;;;6.75;3.40;;;;;;;;;;5057256;28;20614;-80
2021/01/10 19:22:05;;;;;;;6.50;3.85;;;;;;;;;;5064222;28;20136;-80
2021/01/10 19:24:31;;;;;;;6.95;3.83;;;;;;;;;;5055997;28;20835;-81
2021/01/10 19:27:04;;;;;;;7.53;3.50;;;;;;;;;;5050552;28;20029;-80
2021/01/10 19:29:30;;;;;;;6.97;3.88;;;;;;;;;;5057979;28;20129;-82
2021/01/10 19:31:56;;;;;;;6.50;3.70;;;;;;;;;;5058676;28;20033;-80
2021/01/10 19:34:23;;;;;;;8.88;4.75;;;;;;;;;;5066409;28;20025;-81
2021/01/10 19:36:49;;;;;;;7.28;3.65;;;;;;;;;;5064285;28;20021;-81
2021/01/10 19:39:18;;;;;;;7.30;4.30;;;;;;;;;;5060901;28;20511;-81
2021/01/10 19:41:44;;;;;;;8.35;4.53;;;;;;;;;;5059013;28;20021;-81
2021/01/10 19:44:10;;;;;;;7.72;4.60;;;;;;;;;;5062297;28;20531;-81
2021/01/10 19:46:37;;;;;;;8.63;4.70;;;;;;;;;;5066527;28;20033;-81
2021/01/10 19:49:03;;;;;;;7.75;4.93;;;;;;;;;;5064731;28;20103;-81
2021/01/10 19:51:31;;;;;;;8.88;4.38;;;;;;;;;;5057746;28;20059;-81
2021/01/10 19:53:57;;;;;;;8.32;4.53;;;;;;;;;;5063147;28;20073;-81
2021/01/10 20:09:05;;;;;;;6.60;4.40;;;;;;;;;;5122328;27;20359;-80
2021/01/10 20:11:31;;;;;;;7.50;4.47;;;;;;;;;;5127425;28;20031;-80
2021/01/10 20:13:57;;;;;;;8.40;4.30;;;;;;;;;;5118762;28;20039;-80
2021/01/10 20:16:23;;;;;;;7.68;4.15;;;;;;;;;;5120476;28;20545;-80
2021/01/10 20:18:55;;;;;;;8.73;4.47;;;;;;;;;;5110618;27;20114;-78
2021/01/10 20:21:25;;;;;;;6.80;4.10;;;;;;;;;;5109411;28;20028;-79
2021/01/10 20:23:51;;;;;;;7.70;4.53;;;;;;;;;;5108831;27;20536;-79
2021/01/10 20:26:30;;;;;;;8.50;4.55;;;;;;;;;;5100922;28;20027;-78
2021/01/10 20:28:56;;;;;;;10.05;5.32;;;;;;;;;;5103459;28;20019;-78
2021/01/10 20:31:22;;;;;;;9.43;4.15;;;;;;;;;;5099809;28;20020;-81
2021/01/10 20:33:48;;;;;;;9.00;4.93;;;;;;;;;;5115000;27;20026;-80
2021/01/10 20:36:14;;;;;;;8.80;4.05;;;;;;;;;;5097927;28;20390;-80
2021/01/10 20:38:40;;;;;;;11.00;5.93;;;;;;;;;;5117251;27;20039;-80
2021/01/10 20:41:06;;;;;;;10.00;5.78;;;;;;;;;;5126269;28;20071;-80
2021/01/10 20:43:32;;;;;;;11.63;5.88;;;;;;;;;;5116136;28;20081;-78
2021/01/10 20:46:00;;;;;;;9.88;5.07;;;;;;;;;;5102717;28;20721;-80
2021/01/10 20:48:26;;;;;;;10.35;6.07;;;;;;;;;;5119484;28;20024;-80
2021/01/10 20:50:52;;;;;;;12.57;6.10;;;;;;;;;;5109098;28;20016;-80
2021/01/10 20:53:19;;;;;;;10.50;5.72;;;;;;;;;;5114400;27;20047;-80
2021/01/10 20:55:45;;;;;;;10.10;5.15;;;;;;;;;;5107981;27;20020;-79
2021/01/10 21:00:29;;;;;;;11.48;6.05;;;;;;;;;;5111761;27;20381;-80
2021/01/10 21:02:55;;;;;;;8.82;4.95;;;;;;;;;;5097515;28;20032;-80
2021/01/10 21:05:21;;;;;;;9.40;5.13;;;;;;;;;;5092659;28;20035;-80
2021/01/10 21:07:47;;;;;;;10.57;5.60;;;;;;;;;;5104096;28;20434;-82
2021/01/10 21:10:13;;;;;;;10.90;6.28;;;;;;;;;;5106645;28;20020;-78
2021/01/10 21:12:41;;;;;;;10.63;6.30;;;;;;;;;;5113894;28;20039;-78
2021/01/10 21:15:08;;;;;;;13.55;6.35;;;;;;;;;;5117628;28;20087;-82
2021/01/10 21:17:33;;;;;;;11.77;5.60;;;;;;;;;;5110605;28;20028;-81